createdAt,value
2022-10-13T00:02:53.350Z,13.15
2022-10-13T00:05:58.776Z,13.10
2022-10-13T00:09:04.781Z,14.00
2022-10-13T00:12:10.158Z,15.27
2022-10-13T00:15:15.942Z,14.73
2022-10-13T00:18:22.033Z,15.23
2022-10-13T00:21:29.387Z,14.77
2022-10-13T00:24:35.327Z,14.57
2022-10-13T00:27:41.126Z,13.45
2022-10-13T00:30:47.912Z,15.02
2022-10-13T00:33:53.910Z,14.55
2022-10-13T00:37:00.319Z,14.75
2022-10-13T00:40:07.809Z,13.80
2022-10-13T00:43:22.030Z,14.52
2022-10-13T00:46:35.935Z,14.32
2022-10-13T00:49:41.595Z,15.20
2022-10-13T00:52:49.699Z,13.65
2022-10-13T00:55:57.117Z,16.17
2022-10-13T00:59:09.166Z,13.57
2022-10-13T01:02:15.418Z,13.38
2022-10-13T01:05:22.165Z,14.60
2022-10-13T01:08:29.349Z,15.65
2022-10-13T01:11:50.638Z,14.05
2022-10-13T01:15:28.582Z,14.30
2022-10-13T01:18:43.457Z,13.45
2022-10-13T01:22:28.438Z,15.45
2022-10-13T01:25:55.995Z,14.65
2022-10-13T01:29:19.378Z,13.43
2022-10-13T01:32:35.903Z,13.20
2022-10-13T01:36:11.924Z,13.10
2022-10-13T01:39:55.504Z,13.52
2022-10-13T01:43:13.511Z,13.57
2022-10-13T01:46:35.554Z,13.13
2022-10-13T01:49:42.626Z,14.00
2022-10-13T01:52:50.577Z,14.32
2022-10-13T01:56:00.362Z,13.73
2022-10-13T01:59:11.789Z,13.45
2022-10-13T02:02:45.613Z,15.38
2022-10-13T02:06:13.174Z,13.38
2022-10-13T02:10:06.006Z,14.98
2022-10-13T02:13:16.354Z,14.25
2022-10-13T02:16:23.978Z,14.32
2022-10-13T02:19:33.667Z,14.52
2022-10-13T02:22:44.496Z,15.25
2022-10-13T02:25:51.423Z,14.52
2022-10-13T02:28:57.053Z,13.95
2022-10-13T02:32:02.301Z,12.98
2022-10-13T02:35:09.148Z,13.98
2022-10-13T02:38:14.679Z,15.48
2022-10-13T02:41:20.248Z,14.93
2022-10-13T02:44:26.165Z,14.73
2022-10-13T02:47:32.137Z,14.52
2022-10-13T02:50:39.145Z,16.00
2022-10-13T02:53:44.747Z,14.93
2022-10-13T02:56:50.223Z,15.25
2022-10-13T02:59:56.003Z,17.77
2022-10-13T03:03:03.852Z,15.77
2022-10-13T03:06:09.944Z,17.30
2022-10-13T03:09:15.435Z,16.88
2022-10-13T03:12:22.570Z,16.63
2022-10-13T03:15:28.412Z,18.13
2022-10-13T03:18:37.757Z,16.23
2022-10-13T03:21:43.300Z,18.35
2022-10-13T03:24:48.982Z,15.68
2022-10-13T03:27:56.160Z,16.30
2022-10-13T03:31:08.027Z,17.45
2022-10-13T03:34:15.517Z,17.00
2022-10-13T03:37:20.990Z,18.83
2022-10-13T03:40:26.687Z,17.75
2022-10-13T03:43:32.361Z,16.33
2022-10-13T03:46:38.055Z,15.50
2022-10-13T03:49:43.789Z,16.88
2022-10-13T03:52:49.328Z,16.25
2022-10-13T03:55:56.923Z,15.85
2022-10-13T03:59:05.260Z,16.20
2022-10-13T04:02:10.483Z,16.15
2022-10-13T04:05:16.289Z,14.93
2022-10-13T04:08:21.701Z,14.93
2022-10-13T04:11:27.105Z,15.30
2022-10-13T04:14:33.805Z,14.95
2022-10-13T04:17:50.900Z,16.00
2022-10-13T04:20:56.993Z,15.45
2022-10-13T04:24:03.725Z,16.42
2022-10-13T04:27:09.166Z,15.23
2022-10-13T04:30:14.860Z,14.38
2022-10-13T04:33:20.309Z,15.98
2022-10-13T04:36:27.336Z,15.27
2022-10-13T04:39:32.807Z,15.48
2022-10-13T04:42:37.933Z,13.70
2022-10-13T04:45:43.283Z,14.68
2022-10-13T04:48:48.453Z,11.93
2022-10-13T04:51:53.794Z,13.90
2022-10-13T04:54:59.422Z,13.63
2022-10-13T04:58:04.887Z,14.23
2022-10-13T05:01:20.524Z,12.82
2022-10-13T05:04:27.809Z,13.70
2022-10-13T05:07:33.197Z,12.52
2022-10-13T05:10:39.858Z,13.10
2022-10-13T05:13:45.382Z,13.63
2022-10-13T05:16:50.735Z,15.88
2022-10-13T05:19:56.570Z,14.38
2022-10-13T05:23:01.810Z,14.52
2022-10-13T05:26:10.123Z,14.73
2022-10-13T05:29:15.502Z,15.00
2022-10-13T05:32:20.977Z,13.82
2022-10-13T05:35:27.854Z,14.35
2022-10-13T05:38:33.165Z,14.45
2022-10-13T05:41:39.696Z,14.20
2022-10-13T05:44:52.121Z,13.57
2022-10-13T05:47:58.010Z,14.18
2022-10-13T05:51:07.980Z,16.00
2022-10-13T05:54:31.416Z,14.13
2022-10-13T05:57:41.751Z,14.02
2022-10-13T06:00:47.659Z,15.00
2022-10-13T06:03:58.969Z,13.75
2022-10-13T06:07:04.920Z,16.75
2022-10-13T06:10:11.995Z,14.65
2022-10-13T06:13:17.824Z,15.07
2022-10-13T06:16:23.542Z,13.38
2022-10-13T06:19:29.572Z,14.45
2022-10-13T06:22:37.831Z,15.57
2022-10-13T06:25:53.661Z,13.98
2022-10-13T06:28:59.958Z,13.18
2022-10-13T06:32:06.558Z,14.70
2022-10-13T06:35:12.256Z,14.23
2022-10-13T06:38:18.261Z,14.32
2022-10-13T06:41:26.856Z,15.70
2022-10-13T06:44:32.748Z,13.68
2022-10-13T06:47:41.356Z,14.23
2022-10-13T06:50:47.782Z,16.23
2022-10-13T06:53:53.487Z,14.90
2022-10-13T06:57:02.780Z,16.70
2022-10-13T07:00:09.238Z,15.85
2022-10-13T07:03:16.822Z,15.35
2022-10-13T07:06:22.620Z,17.02
2022-10-13T07:09:29.365Z,17.08
2022-10-13T07:12:35.295Z,18.10
2022-10-13T07:15:41.163Z,17.70
2022-10-13T07:18:48.289Z,18.38
2022-10-13T07:21:53.858Z,17.63
2022-10-13T07:25:02.500Z,17.23
2022-10-13T07:28:08.088Z,17.15
2022-10-13T07:31:17.065Z,17.98
2022-10-13T07:34:22.940Z,18.08
2022-10-13T07:37:29.029Z,16.73
2022-10-13T07:40:34.738Z,16.00
2022-10-13T07:43:40.258Z,17.20
2022-10-13T07:46:46.197Z,16.33
2022-10-13T07:49:51.934Z,16.10
2022-10-13T07:52:57.379Z,17.35
2022-10-13T07:56:05.061Z,16.67
2022-10-13T07:59:10.736Z,16.10
2022-10-13T08:02:16.614Z,16.73
2022-10-13T08:05:22.331Z,17.17
2022-10-13T08:08:29.448Z,15.98
2022-10-13T08:11:34.973Z,15.63
2022-10-13T08:14:40.976Z,15.07
2022-10-13T08:17:47.085Z,16.27
2022-10-13T08:20:59.224Z,15.10
2022-10-13T08:24:16.896Z,15.53
2022-10-13T08:27:32.741Z,14.45
2022-10-13T08:30:48.737Z,16.83
2022-10-13T08:33:54.345Z,15.45
2022-10-13T08:37:00.486Z,16.38
2022-10-13T08:40:07.093Z,15.93
2022-10-13T08:43:17.679Z,15.65
2022-10-13T08:46:28.498Z,17.13
2022-10-13T08:49:34.491Z,16.15
2022-10-13T08:53:00.314Z,17.63
2022-10-13T08:56:15.797Z,16.20
2022-10-13T08:59:25.212Z,14.35
2022-10-13T09:02:32.068Z,15.13
2022-10-13T09:05:55.387Z,14.52
2022-10-13T09:09:12.982Z,16.40
2022-10-13T09:12:26.716Z,14.35
2022-10-13T09:15:47.990Z,14.02
2022-10-13T09:18:55.961Z,13.02
2022-10-13T09:22:24.545Z,13.55
2022-10-13T09:25:38.875Z,14.35
2022-10-13T09:28:44.805Z,13.50
2022-10-13T09:31:50.745Z,13.40
2022-10-13T09:35:22.679Z,13.15
2022-10-13T09:38:29.662Z,13.82
2022-10-13T09:41:36.678Z,14.77
2022-10-13T09:44:42.514Z,14.32
2022-10-13T09:47:55.391Z,12.90
2022-10-13T09:51:01.395Z,13.43
2022-10-13T09:54:27.483Z,14.20
2022-10-13T09:57:52.097Z,12.65
2022-10-13T10:00:58.226Z,13.13
2022-10-13T10:04:07.755Z,13.27
2022-10-13T10:07:20.941Z,14.02
2022-10-13T10:10:40.015Z,11.60
2022-10-13T10:13:47.733Z,12.10
2022-10-13T10:17:31.980Z,14.00
2022-10-13T10:20:43.192Z,14.02
2022-10-13T10:24:04.362Z,13.80
2022-10-13T10:27:22.704Z,12.32
2022-10-13T10:30:32.066Z,11.02
2022-10-13T10:34:15.676Z,12.30
2022-10-13T10:37:29.933Z,12.77
2022-10-13T10:40:49.552Z,14.10
2022-10-13T10:44:39.465Z,12.95
2022-10-13T10:47:50.812Z,11.35
2022-10-13T10:51:01.116Z,11.48
2022-10-13T10:54:25.274Z,11.38
2022-10-13T10:57:36.300Z,10.57
2022-10-13T11:00:59.425Z,11.63
2022-10-13T11:04:25.939Z,12.15
2022-10-13T11:07:31.398Z,10.75
2022-10-13T11:10:36.850Z,11.82
2022-10-13T11:13:57.812Z,11.18
2022-10-13T11:17:07.544Z,13.52
2022-10-13T11:20:21.723Z,12.93
2022-10-13T11:23:33.121Z,13.52
2022-10-13T11:26:43.799Z,13.70
2022-10-13T11:29:59.971Z,14.55
2022-10-13T11:33:40.710Z,14.02
2022-10-13T11:36:55.943Z,13.32
2022-10-13T11:40:30.527Z,14.25
2022-10-13T11:44:03.630Z,12.93
2022-10-13T11:47:29.255Z,12.50
2022-10-13T11:50:44.860Z,15.23
2022-10-13T11:54:04.817Z,14.20
2022-10-13T11:57:22.663Z,15.80
2022-10-13T12:00:28.135Z,14.60
2022-10-13T12:03:42.936Z,14.45
2022-10-13T12:07:18.510Z,14.77
2022-10-13T12:10:35.944Z,15.20
2022-10-13T12:13:47.704Z,14.88
2022-10-13T12:16:58.514Z,15.43
2022-10-13T12:20:23.298Z,13.07
2022-10-13T12:23:30.417Z,14.38
2022-10-13T12:26:35.635Z,15.05
2022-10-13T12:29:41.652Z,15.20
2022-10-13T12:32:53.521Z,12.57
2022-10-13T12:36:18.467Z,14.13
2022-10-13T12:39:25.693Z,13.60
2022-10-13T12:42:33.829Z,13.13
2022-10-13T12:45:41.248Z,15.38
2022-10-13T12:48:48.790Z,13.88
2022-10-13T12:52:03.719Z,11.80
2022-10-13T12:55:20.637Z,13.05
2022-10-13T12:58:34.283Z,12.27
2022-10-13T13:01:40.631Z,13.85
2022-10-13T13:04:45.965Z,13.18
2022-10-13T13:07:54.227Z,12.85
2022-10-13T13:11:02.279Z,14.48
2022-10-13T13:14:50.336Z,14.43
2022-10-13T13:17:58.224Z,14.68
2022-10-13T13:21:07.670Z,13.52
2022-10-13T13:24:28.322Z,12.43
2022-10-13T13:27:41.530Z,14.35
2022-10-13T13:30:46.682Z,13.88
2022-10-13T13:33:53.055Z,14.43
2022-10-13T13:36:59.863Z,13.68
2022-10-13T13:40:07.614Z,14.32
2022-10-13T13:43:12.653Z,13.63
2022-10-13T13:46:25.045Z,14.15
2022-10-13T13:49:30.269Z,13.63
2022-10-13T13:52:35.443Z,13.70
2022-10-13T13:55:42.575Z,15.60
2022-10-13T13:58:48.571Z,14.77
2022-10-13T14:01:53.971Z,13.70
2022-10-13T14:05:01.012Z,14.80
2022-10-13T14:08:07.129Z,13.57
2022-10-13T14:11:13.144Z,12.75
2022-10-13T14:14:18.700Z,12.05
2022-10-13T14:17:24.217Z,13.52
2022-10-13T14:20:29.904Z,13.85
2022-10-13T14:23:36.309Z,13.18
2022-10-13T14:26:41.986Z,12.02
2022-10-13T14:29:47.864Z,12.38
2022-10-13T14:32:54.437Z,12.82
2022-10-13T14:36:03.393Z,12.95
2022-10-13T14:39:08.946Z,11.98
2022-10-13T14:42:14.132Z,13.27
2022-10-13T14:45:19.638Z,12.50
2022-10-13T14:48:25.188Z,11.85
2022-10-13T14:51:32.568Z,11.75
2022-10-13T14:54:41.234Z,12.05
2022-10-13T14:57:50.071Z,11.68
2022-10-13T15:00:56.965Z,12.23
2022-10-13T15:04:03.522Z,13.25
2022-10-13T15:07:09.485Z,13.05
2022-10-13T15:10:15.037Z,14.10
2022-10-13T15:13:20.723Z,12.90
2022-10-13T15:16:29.464Z,12.68
2022-10-13T15:19:35.153Z,12.23
2022-10-13T15:22:41.507Z,12.35
2022-10-13T15:25:59.278Z,13.02
2022-10-13T15:29:05.712Z,13.45
2022-10-13T15:32:20.762Z,12.60
2022-10-13T15:35:33.044Z,13.20
2022-10-13T15:38:38.839Z,12.82
2022-10-13T15:41:44.558Z,13.68
2022-10-13T15:45:08.707Z,14.98
2022-10-13T15:48:16.274Z,12.57
2022-10-13T15:51:24.689Z,14.32
2022-10-13T15:54:30.075Z,14.20
2022-10-13T15:57:36.020Z,12.63
2022-10-13T16:00:41.973Z,13.25
2022-10-13T16:03:47.507Z,14.90
2022-10-13T16:06:53.253Z,14.00
2022-10-13T16:09:58.608Z,13.90
2022-10-13T16:13:03.713Z,14.65
2022-10-13T16:16:09.481Z,13.70
2022-10-13T16:19:15.228Z,13.30
2022-10-13T16:22:21.591Z,13.63
2022-10-13T16:25:27.392Z,12.88
2022-10-13T16:28:33.454Z,12.70
2022-10-13T16:31:38.599Z,13.18
2022-10-13T16:34:48.575Z,13.40
2022-10-13T16:37:57.556Z,13.57
2022-10-13T16:41:13.122Z,14.98
2022-10-13T16:44:18.886Z,14.45
2022-10-13T16:47:24.886Z,14.85
2022-10-13T16:50:30.854Z,14.80
2022-10-13T16:53:36.749Z,14.23
2022-10-13T16:56:42.069Z,12.98
2022-10-13T16:59:47.294Z,13.60
2022-10-13T17:02:52.605Z,15.32
2022-10-13T17:05:58.014Z,23.40
2022-10-13T17:09:04.203Z,15.98
2022-10-13T17:12:09.610Z,17.38
2022-10-13T17:15:14.851Z,15.02
2022-10-13T17:18:21.133Z,14.88
2022-10-13T17:21:26.322Z,15.85
2022-10-13T17:24:31.739Z,15.68
2022-10-13T17:27:38.010Z,14.70
2022-10-13T17:30:44.148Z,15.20
2022-10-13T17:33:50.312Z,15.35
2022-10-13T17:36:55.487Z,15.38
2022-10-13T17:40:00.989Z,17.27
2022-10-13T17:43:06.626Z,17.15
2022-10-13T17:49:41.802Z,17.30
2022-10-13T17:52:49.797Z,17.55
2022-10-13T17:56:03.696Z,19.30
2022-10-13T17:59:10.194Z,20.98
2022-10-13T18:02:15.526Z,26.98
2022-10-13T18:05:20.812Z,23.85
2022-10-13T18:08:26.325Z,25.27
2022-10-13T18:11:32.122Z,24.10
2022-10-13T18:14:37.474Z,22.55
2022-10-13T18:17:43.461Z,21.92
2022-10-13T18:20:48.728Z,19.73
2022-10-13T18:23:56.157Z,17.67
2022-10-13T18:27:03.157Z,18.52
2022-10-13T18:30:10.051Z,17.90
2022-10-13T18:33:16.495Z,16.83
2022-10-13T18:36:24.546Z,17.92
2022-10-13T18:39:30.784Z,18.92
2022-10-13T18:42:36.500Z,18.92
2022-10-13T18:45:42.133Z,19.15
2022-10-13T18:48:47.286Z,18.77
2022-10-13T18:51:53.834Z,17.10
2022-10-13T18:54:59.097Z,19.63
2022-10-13T18:58:04.493Z,19.13
2022-10-13T19:01:12.833Z,22.40
2022-10-13T19:04:18.555Z,19.63
2022-10-13T19:07:23.844Z,18.83
2022-10-13T19:10:30.032Z,19.23
2022-10-13T19:13:35.306Z,17.55
2022-10-13T19:16:43.855Z,19.15
2022-10-13T19:19:49.079Z,19.67
2022-10-13T19:22:54.576Z,18.67
2022-10-13T19:26:05.318Z,19.98
2022-10-13T19:29:13.462Z,19.25
2022-10-13T19:32:18.838Z,18.98
2022-10-13T19:35:24.361Z,20.30
2022-10-13T19:38:31.021Z,20.75
2022-10-13T19:41:38.264Z,20.35
2022-10-13T19:44:44.972Z,21.13
2022-10-13T19:47:52.341Z,21.10
2022-10-13T19:51:01.812Z,20.25
2022-10-13T19:54:09.832Z,21.83
2022-10-13T19:57:16.447Z,22.60
2022-10-13T20:00:22.168Z,22.20
2022-10-13T20:03:27.797Z,23.85
2022-10-13T20:06:34.264Z,22.73
2022-10-13T20:09:40.864Z,24.38
2022-10-13T20:12:46.932Z,22.27
2022-10-13T20:15:52.515Z,24.63
2022-10-13T20:19:00.543Z,21.30
2022-10-13T20:22:06.476Z,22.40
2022-10-13T20:25:15.494Z,22.92
2022-10-13T20:28:21.051Z,24.23
2022-10-13T20:31:27.043Z,22.48
2022-10-13T20:34:32.813Z,25.05
2022-10-13T20:37:38.232Z,26.13
2022-10-13T20:40:43.492Z,23.92
2022-10-13T20:43:52.124Z,23.40
2022-10-13T20:46:58.086Z,24.20
2022-10-13T20:50:05.322Z,24.08
2022-10-13T20:53:10.900Z,24.90
2022-10-13T20:56:22.833Z,23.48
2022-10-13T20:59:28.406Z,23.10
2022-10-13T21:02:34.161Z,24.58
2022-10-13T21:05:39.828Z,25.08
2022-10-13T21:08:47.039Z,24.55
2022-10-13T21:11:52.993Z,25.13
2022-10-13T21:14:58.474Z,25.98
2022-10-13T21:18:05.735Z,25.38
2022-10-13T21:21:13.665Z,24.85
2022-10-13T21:24:19.575Z,24.98
2022-10-13T21:27:24.860Z,26.45
2022-10-13T21:30:32.011Z,26.67
2022-10-13T21:33:39.589Z,24.85
2022-10-13T21:36:45.852Z,25.88
2022-10-13T21:39:51.287Z,25.30
2022-10-13T21:42:56.916Z,25.50
2022-10-13T21:46:09.624Z,27.50
2022-10-13T21:49:17.410Z,28.25
2022-10-13T21:52:23.869Z,26.92
2022-10-13T21:55:29.405Z,27.70
2022-10-13T21:58:35.909Z,26.90
2022-10-13T22:01:41.945Z,27.67
2022-10-13T22:04:50.610Z,27.52
2022-10-13T22:07:56.436Z,25.27
2022-10-13T22:11:02.007Z,26.98
2022-10-13T22:14:08.345Z,25.98
2022-10-13T22:17:14.067Z,24.58
2022-10-13T22:20:19.563Z,26.15
2022-10-13T22:23:24.936Z,27.02
2022-10-13T22:26:33.694Z,27.83
2022-10-13T22:29:39.126Z,26.42
2022-10-13T22:32:44.407Z,26.15
2022-10-13T22:35:49.823Z,24.60
2022-10-13T22:38:58.410Z,25.27
2022-10-13T22:42:03.874Z,25.30
2022-10-13T22:45:11.744Z,24.27
2022-10-13T22:48:17.569Z,24.13
2022-10-13T22:51:25.248Z,24.45
2022-10-13T22:54:31.365Z,24.83
2022-10-13T22:57:37.097Z,24.13
2022-10-13T23:00:42.789Z,25.02
2022-10-13T23:03:50.247Z,24.38
2022-10-13T23:06:55.682Z,23.33
2022-10-13T23:10:01.247Z,23.33
2022-10-13T23:13:06.991Z,21.67
2022-10-13T23:16:16.015Z,24.45
2022-10-13T23:19:21.350Z,22.65
2022-10-13T23:22:26.717Z,23.85
2022-10-13T23:25:36.613Z,24.20
2022-10-13T23:28:43.414Z,23.27
2022-10-13T23:31:48.931Z,24.50
2022-10-13T23:34:54.644Z,24.00
2022-10-13T23:38:02.202Z,25.92
2022-10-13T23:41:11.226Z,23.75
2022-10-13T23:44:17.070Z,23.55
2022-10-13T23:47:23.716Z,23.15
2022-10-13T23:50:30.070Z,25.55
2022-10-13T23:53:37.525Z,24.38
2022-10-13T23:56:42.735Z,25.83
2022-10-13T23:59:48.353Z,25.70
